Time;durP1;ratioP1;P1;durP2;ratioP2;P2;SDS_P1;SDS_P2;PMS_P1;PMS_P2;Temp;Humidity;BMP_temperature;BMP_pressure;BME280_temperature;BME280_humidity;BME280_pressure;Samples;Min_cycle;Max_cycle;Signal;HPM_P1;HPM_P2
2023/09/13 00:00:15;;;;;;;134.25;93.45;;;27.40;99.90;;;;;;5035411;28;20109;-66
2023/09/13 00:02:42;;;;;;;140.82;92.97;;;27.40;99.90;;;;;;5035244;28;20018;-66
2023/09/13 00:05:09;;;;;;;131.05;87.53;;;27.40;99.90;;;;;;5035170;28;20017;-65
2023/09/13 00:07:36;;;;;;;116.38;84.10;;;27.50;99.90;;;;;;5035293;28;20076;-66
2023/09/13 00:10:03;;;;;;;137.70;91.80;;;27.40;99.90;;;;;;5035196;28;20049;-65
2023/09/13 00:12:29;;;;;;;141.88;95.25;;;27.50;99.90;;;;;;5035182;28;20017;-65
2023/09/13 00:14:56;;;;;;;145.65;97.75;;;27.40;99.90;;;;;;5035177;28;20172;-63
2023/09/13 00:17:23;;;;;;;120.85;84.95;;;27.40;99.90;;;;;;5035104;28;20160;-63
2023/09/13 00:19:50;;;;;;;108.82;74.93;;;27.50;99.90;;;;;;5035019;28;20492;-63
2023/09/13 00:22:16;;;;;;;98.85;72.78;;;27.60;99.90;;;;;;5035050;28;20377;-64
2023/09/13 00:24:43;;;;;;;94.05;70.55;;;27.60;99.90;;;;;;5035053;28;20029;-68
2023/09/13 00:27:09;;;;;;;96.47;68.28;;;27.60;99.90;;;;;;5034937;28;20048;-66
2023/09/13 00:29:36;;;;;;;99.72;71.50;;;27.60;99.90;;;;;;5035041;28;20036;-66
2023/09/13 00:32:02;;;;;;;90.45;62.60;;;27.70;99.90;;;;;;5034761;28;20028;-67
2023/09/13 00:34:30;;;;;;;85.22;63.55;;;27.80;99.90;;;;;;5034832;28;20105;-67
2023/09/13 00:36:56;;;;;;;84.80;62.10;;;27.80;99.90;;;;;;5034583;28;20029;-67
2023/09/13 00:39:23;;;;;;;89.35;66.93;;;27.90;99.90;;;;;;5034771;28;20025;-66
2023/09/13 00:41:49;;;;;;;83.18;61.35;;;27.90;99.90;;;;;;5035316;28;20017;-66
2023/09/13 00:44:16;;;;;;;95.80;58.65;;;28.00;99.90;;;;;;5034570;28;20418;-66
2023/09/13 00:46:44;;;;;;;93.80;66.97;;;28.10;99.90;;;;;;5034804;28;20025;-66
2023/09/13 00:49:10;;;;;;;91.97;67.85;;;28.10;99.90;;;;;;5034825;28;20017;-65
2023/09/13 00:51:37;;;;;;;94.00;66.00;;;28.10;99.90;;;;;;5034168;28;20028;-65
2023/09/13 00:54:04;;;;;;;90.45;64.35;;;28.20;99.90;;;;;;5037339;28;20365;-63
2023/09/13 00:56:33;;;;;;;86.72;61.70;;;28.20;99.90;;;;;;5042831;28;20029;-65
2023/09/13 00:59:02;;;;;;;82.65;63.13;;;28.30;99.90;;;;;;5034271;28;20021;-65
2023/09/13 01:01:29;;;;;;;83.32;63.10;;;28.40;99.90;;;;;;5037201;28;20426;-63
2023/09/13 01:03:57;;;;;;;89.90;60.72;;;28.40;99.90;;;;;;5043038;28;20052;-67
2023/09/13 01:06:23;;;;;;;83.75;60.25;;;28.50;99.90;;;;;;5034106;28;20030;-66
2023/09/13 01:08:50;;;;;;;83.20;60.03;;;28.50;99.90;;;;;;5034214;28;20132;-66
2023/09/13 01:11:17;;;;;;;78.03;57.67;;;28.60;99.90;;;;;;5034049;28;20274;-67
2023/09/13 01:13:44;;;;;;;86.43;58.83;;;28.60;99.90;;;;;;5033894;28;20100;-67
2023/09/13 01:16:17;;;;;;;72.95;51.40;;;28.70;99.90;;;;;;5054910;28;20025;-65
2023/09/13 01:18:59;;;;;;;67.95;47.55;;;28.80;99.90;;;;;;5073917;28;20035;-66
2023/09/13 01:22:05;;;;;;;61.38;45.20;;;28.80;99.90;;;;;;5073978;28;20031;-66
2023/09/13 01:24:59;;;;;;;56.47;41.90;;;28.90;99.90;;;;;;5012316;28;20033;-66
2023/09/13 01:27:46;;;;;;;57.90;40.97;;;29.00;99.90;;;;;;5072671;28;20033;-66
2023/09/13 01:30:14;;;;;;;46.85;34.85;;;29.10;99.90;;;;;;5073529;28;20052;-66
2023/09/13 01:32:45;;;;;;;51.58;39.17;;;29.20;99.90;;;;;;5073660;28;20035;-66
2023/09/13 01:35:11;;;;;;;58.75;41.25;;;29.30;99.90;;;;;;5073797;28;20025;-66
2023/09/13 01:37:38;;;;;;;51.03;36.65;;;29.30;99.90;;;;;;5073663;28;20024;-66
2023/09/13 01:40:07;;;;;;;48.88;35.30;;;29.40;99.90;;;;;;5073791;28;20024;-66
2023/09/13 01:42:36;;;;;;;50.95;35.53;;;29.50;99.90;;;;;;5073737;28;20424;-66
2023/09/13 01:45:03;;;;;;;57.53;37.65;;;29.50;99.90;;;;;;5073900;28;20032;-66
2023/09/13 01:47:33;;;;;;;44.75;34.22;;;29.50;99.90;;;;;;5071491;28;20053;-65
2023/09/13 01:50:00;;;;;;;49.17;34.40;;;29.60;99.90;;;;;;5053489;28;20029;-66
2023/09/13 01:52:28;;;;;;;44.75;28.88;;;29.70;99.90;;;;;;5053162;28;20495;-67
2023/09/13 01:54:55;;;;;;;40.17;25.25;;;29.80;99.90;;;;;;5053307;28;20043;-66
2023/09/13 01:57:21;;;;;;;32.05;21.98;;;29.90;99.90;;;;;;5053355;28;20032;-66
2023/09/13 01:59:48;;;;;;;28.95;21.38;;;29.90;99.90;;;;;;5053239;28;20013;-66
2023/09/13 02:02:14;;;;;;;37.90;25.13;;;29.90;99.90;;;;;;5053303;28;20021;-66
2023/09/13 02:04:41;;;;;;;47.75;26.73;;;30.00;99.90;;;;;;5053257;28;20059;-65
2023/09/13 02:07:08;;;;;;;31.75;22.50;;;30.00;99.90;;;;;;5053327;28;20025;-64
2023/09/13 02:09:36;;;;;;;37.33;23.85;;;30.00;99.90;;;;;;5052326;28;20036;-64
2023/09/13 02:12:04;;;;;;;31.52;23.35;;;30.10;99.90;;;;;;5053321;28;20590;-64
2023/09/13 02:14:30;;;;;;;38.10;22.73;;;30.20;99.90;;;;;;5053422;28;20369;-66
2023/09/13 02:17:00;;;;;;;37.08;22.70;;;30.30;99.90;;;;;;5053012;28;20486;-64
2023/09/13 02:19:26;;;;;;;44.88;24.13;;;30.40;99.90;;;;;;5052570;28;20025;-64
2023/09/13 02:21:53;;;;;;;49.08;29.42;;;30.50;99.90;;;;;;5053170;28;20029;-64
2023/09/13 02:24:19;;;;;;;40.97;28.83;;;30.40;99.90;;;;;;5053048;28;20029;-64
2023/09/13 02:26:46;;;;;;;43.95;28.23;;;30.40;99.90;;;;;;5052983;28;20024;-64
2023/09/13 02:29:12;;;;;;;41.70;27.02;;;30.50;99.90;;;;;;5052982;28;20509;-64
2023/09/13 02:31:39;;;;;;;50.65;28.75;;;30.50;99.90;;;;;;5052861;28;20033;-64
2023/09/13 02:34:05;;;;;;;44.20;29.60;;;30.50;99.90;;;;;;5053142;28;20507;-66
2023/09/13 02:36:32;;;;;;;44.75;29.30;;;30.50;99.90;;;;;;5053168;28;20025;-67
2023/09/13 02:38:59;;;;;;;49.50;30.00;;;30.60;99.90;;;;;;5047791;28;20017;-68
2023/09/13 02:41:26;;;;;;;47.67;27.10;;;30.70;99.90;;;;;;5040977;28;20028;-67
2023/09/13 02:43:52;;;;;;;45.30;27.55;;;30.90;99.90;;;;;;5040854;28;20029;-67
2023/09/13 02:46:19;;;;;;;50.15;31.42;;;30.90;99.90;;;;;;5032984;28;20032;-67
2023/09/13 02:48:45;;;;;;;47.35;28.42;;;31.00;99.90;;;;;;5033023;28;20053;-67
2023/09/13 02:51:15;;;;;;;55.08;31.50;;;31.10;99.90;;;;;;5033402;28;20561;-67
2023/09/13 02:53:42;;;;;;;49.08;30.63;;;31.30;99.90;;;;;;5032506;28;20056;-68
2023/09/13 02:56:09;;;;;;;41.10;25.05;;;31.30;99.90;;;;;;5032762;28;20018;-67
2023/09/13 02:58:37;;;;;;;39.17;25.25;;;31.30;99.90;;;;;;5032738;28;20036;-66
2023/09/13 03:01:07;;;;;;;45.33;25.98;;;31.30;99.90;;;;;;5032976;28;20379;-67
2023/09/13 03:03:33;;;;;;;57.90;28.02;;;31.50;99.90;;;;;;5032524;28;20029;-64
2023/09/13 03:06:17;;;;;;;52.22;30.77;;;31.50;99.90;;;;;;5032069;28;20033;-66
2023/09/13 03:08:44;;;;;;;65.35;42.33;;;31.60;99.90;;;;;;5031722;28;20029;-66
2023/09/13 03:11:12;;;;;;;68.65;41.03;;;31.70;99.90;;;;;;5032877;28;20072;-66
2023/09/13 03:13:39;;;;;;;76.30;45.55;;;31.70;99.90;;;;;;5031456;28;20492;-66
2023/09/13 03:16:34;;;;;;;96.35;52.17;;;31.80;99.90;;;;;;5031264;28;20022;-66
2023/09/13 03:19:01;;;;;;;100.47;53.75;;;31.80;99.90;;;;;;5023155;28;20034;-64
2023/09/13 03:21:27;;;;;;;97.65;56.00;;;31.90;99.90;;;;;;5035563;28;20075;-64
2023/09/13 03:23:54;;;;;;;106.30;56.58;;;31.90;99.90;;;;;;5035785;28;20060;-64
2023/09/13 03:26:23;;;;;;;102.10;57.15;;;31.90;99.90;;;;;;5035513;28;20060;-64
2023/09/13 03:28:52;;;;;;;109.70;62.47;;;31.80;99.90;;;;;;5035724;28;20029;-66
2023/09/13 03:31:28;;;;;;;117.50;66.65;;;31.80;99.90;;;;;;5035902;28;20029;-66
2023/09/13 03:33:57;;;;;;;114.35;66.15;;;31.80;99.90;;;;;;5040887;28;20033;-66
2023/09/13 03:36:28;;;;;;;103.60;60.03;;;32.00;99.90;;;;;;5055797;28;20017;-66
2023/09/13 03:38:55;;;;;;;92.45;55.63;;;32.10;99.90;;;;;;5055665;28;20027;-66
2023/09/13 03:41:23;;;;;;;89.55;50.50;;;32.20;99.90;;;;;;5055620;28;20091;-64
2023/09/13 03:43:51;;;;;;;93.18;51.83;;;32.40;99.90;;;;;;5055606;28;20035;-64
2023/09/13 03:46:17;;;;;;;98.40;54.35;;;32.40;99.90;;;;;;5055427;28;20040;-64
2023/09/13 03:48:44;;;;;;;98.00;56.63;;;32.50;99.90;;;;;;5055627;28;20021;-65
2023/09/13 03:51:10;;;;;;;108.90;60.97;;;32.40;99.90;;;;;;5055811;28;20078;-65
2023/09/13 03:53:37;;;;;;;102.22;62.63;;;32.40;99.90;;;;;;5055188;28;20052;-65
2023/09/13 03:56:05;;;;;;;98.20;57.60;;;32.40;99.90;;;;;;5055444;28;20021;-64
2023/09/13 03:58:34;;;;;;;99.15;54.03;;;32.40;99.90;;;;;;5055408;28;20025;-64
2023/09/13 04:01:02;;;;;;;105.07;58.03;;;32.40;99.90;;;;;;5036861;28;20026;-66
2023/09/13 04:03:29;;;;;;;91.32;54.00;;;32.40;99.90;;;;;;5052664;28;20511;-66
2023/09/13 04:05:55;;;;;;;76.20;44.60;;;32.50;99.90;;;;;;5037040;28;20049;-66
2023/09/13 04:08:22;;;;;;;66.70;42.15;;;32.60;99.90;;;;;;5063397;28;20028;-66
2023/09/13 04:10:49;;;;;;;63.60;38.78;;;32.60;99.90;;;;;;5074198;28;20024;-69
2023/09/13 04:13:16;;;;;;;68.38;37.60;;;32.50;99.90;;;;;;5074190;28;20487;-66
2023/09/13 04:15:45;;;;;;;68.97;35.70;;;32.40;99.90;;;;;;5074096;28;20042;-68
2023/09/13 04:18:13;;;;;;;50.75;32.85;;;32.40;99.90;;;;;;5069110;28;20047;-68
2023/09/13 04:20:42;;;;;;;52.80;31.80;;;32.50;99.90;;;;;;5074193;28;20016;-69
2023/09/13 04:23:08;;;;;;;51.80;31.73;;;32.50;99.90;;;;;;5074085;28;20017;-67
2023/09/13 04:25:36;;;;;;;43.97;31.05;;;32.50;99.90;;;;;;5071813;28;20421;-67
2023/09/13 04:28:02;;;;;;;53.20;37.08;;;32.50;99.90;;;;;;5064496;28;20103;-67
2023/09/13 04:30:29;;;;;;;46.63;31.58;;;32.60;99.90;;;;;;5074141;28;20094;-65
2023/09/13 04:32:55;;;;;;;41.15;29.33;;;32.60;99.90;;;;;;5074961;28;20498;-66
2023/09/13 04:35:22;;;;;;;47.75;29.27;;;32.60;99.90;;;;;;5074941;28;20103;-65
2023/09/13 04:37:48;;;;;;;43.22;30.10;;;32.70;99.90;;;;;;5074862;28;20059;-66
2023/09/13 04:40:15;;;;;;;41.75;31.42;;;32.80;99.90;;;;;;5075060;28;20079;-67
2023/09/13 04:42:50;;;;;;;43.67;30.27;;;32.90;99.90;;;;;;5074898;28;20092;-67
2023/09/13 04:45:16;;;;;;;41.58;29.23;;;33.00;99.90;;;;;;5073748;28;20529;-71
2023/09/13 04:47:43;;;;;;;45.10;29.88;;;33.10;99.90;;;;;;5059530;28;20064;-70
2023/09/13 04:50:09;;;;;;;44.25;30.33;;;33.10;99.90;;;;;;5054641;28;20031;-69
2023/09/13 04:52:36;;;;;;;55.33;33.17;;;33.10;99.90;;;;;;5054427;28;20515;-67
2023/09/13 04:55:04;;;;;;;47.13;30.75;;;33.10;99.90;;;;;;5054279;28;20123;-67
2023/09/13 04:57:30;;;;;;;66.93;38.88;;;33.20;99.90;;;;;;5050032;28;20029;-67
2023/09/13 04:59:57;;;;;;;58.40;32.75;;;33.20;99.90;;;;;;5053984;28;20021;-66
2023/09/13 05:02:23;;;;;;;48.15;31.52;;;33.40;99.50;;;;;;5054119;28;20033;-70
2023/09/13 05:04:50;;;;;;;47.50;31.42;;;33.50;99.50;;;;;;5054053;28;20440;-68
2023/09/13 05:07:16;;;;;;;44.75;29.52;;;33.40;99.20;;;;;;5054051;28;20108;-67
2023/09/13 05:09:43;;;;;;;45.30;30.27;;;33.40;99.10;;;;;;5054060;28;20021;-65
2023/09/13 05:12:10;;;;;;;41.58;29.30;;;33.50;98.80;;;;;;5051481;28;20112;-64
2023/09/13 05:14:37;;;;;;;50.22;29.77;;;33.50;98.80;;;;;;5033858;28;20077;-66
2023/09/13 05:17:04;;;;;;;40.40;29.70;;;33.50;98.90;;;;;;5034259;28;20074;-64
2023/09/13 05:19:30;;;;;;;50.15;31.60;;;33.50;98.90;;;;;;5034262;28;20028;-66
2023/09/13 05:21:57;;;;;;;45.67;33.25;;;33.70;98.20;;;;;;5034192;28;20565;-65
2023/09/13 05:24:23;;;;;;;54.55;35.33;;;33.70;97.90;;;;;;5034035;28;20045;-66
2023/09/13 05:26:50;;;;;;;58.03;37.60;;;33.70;97.50;;;;;;5034106;28;20068;-69
2023/09/13 05:29:17;;;;;;;57.72;37.65;;;33.70;97.90;;;;;;5033872;28;20030;-63
2023/09/13 05:31:43;;;;;;;61.88;39.85;;;33.80;98.10;;;;;;5039566;28;20044;-67
2023/09/13 05:34:10;;;;;;;51.67;33.83;;;33.90;98.10;;;;;;5039650;28;20029;-70
2023/09/13 05:36:36;;;;;;;39.92;29.90;;;33.90;97.80;;;;;;5034247;28;20048;-66
2023/09/13 05:39:03;;;;;;;42.60;29.50;;;34.00;97.60;;;;;;5033650;28;20384;-66
2023/09/13 05:41:30;;;;;;;43.83;30.30;;;33.80;97.30;;;;;;5034200;28;20017;-65
2023/09/13 05:43:56;;;;;;;37.50;27.08;;;33.70;97.10;;;;;;5034310;28;20037;-69
2023/09/13 05:46:23;;;;;;;48.08;30.90;;;33.70;97.10;;;;;;5034055;28;20030;-69
2023/09/13 05:48:49;;;;;;;40.60;27.05;;;33.70;96.50;;;;;;5034021;28;20067;-67
2023/09/13 05:51:16;;;;;;;38.70;26.15;;;33.70;96.90;;;;;;5033465;28;20052;-68
2023/09/13 05:53:43;;;;;;;38.25;26.92;;;33.70;96.90;;;;;;5033004;28;20045;-68
2023/09/13 05:56:12;;;;;;;40.10;27.20;;;33.70;96.80;;;;;;5033385;28;20388;-68
2023/09/13 05:58:43;;;;;;;38.20;26.00;;;33.80;96.70;;;;;;5072871;28;20078;-68
2023/09/13 06:01:13;;;;;;;51.35;31.13;;;33.90;97.00;;;;;;5072775;28;20432;-69
2023/09/13 06:03:39;;;;;;;50.20;30.05;;;33.90;96.40;;;;;;5071536;28;20094;-69
2023/09/13 06:06:06;;;;;;;47.40;29.17;;;33.80;96.50;;;;;;5071566;28;20032;-67
2023/09/13 06:08:32;;;;;;;41.97;28.55;;;33.80;97.00;;;;;;5072781;28;20032;-69
2023/09/13 06:10:59;;;;;;;47.88;32.88;;;33.90;97.40;;;;;;5072628;28;20029;-68
2023/09/13 06:13:26;;;;;;;45.33;32.20;;;34.00;96.50;;;;;;5072774;28;20036;-66
2023/09/13 06:15:52;;;;;;;51.85;31.50;;;34.00;96.70;;;;;;5073057;28;20021;-68
2023/09/13 06:18:19;;;;;;;44.45;32.28;;;33.90;96.70;;;;;;5073169;28;20048;-67
2023/09/13 06:20:45;;;;;;;66.85;38.20;;;33.90;96.50;;;;;;5073139;28;20382;-67
2023/09/13 06:23:33;;;;;;;58.38;41.22;;;33.90;96.30;;;;;;5072889;28;20044;-67
2023/09/13 06:26:00;;;;;;;66.57;45.75;;;33.90;96.20;;;;;;5073130;28;20031;-66
2023/09/13 06:28:26;;;;;;;65.47;43.75;;;33.90;96.20;;;;;;5072932;28;20435;-65
2023/09/13 06:30:53;;;;;;;49.70;34.70;;;33.90;95.80;;;;;;5072849;28;20104;-68
2023/09/13 06:33:20;;;;;;;52.30;36.00;;;34.00;96.80;;;;;;5066992;28;20475;-66
2023/09/13 06:35:46;;;;;;;51.42;34.22;;;34.10;96.40;;;;;;5043829;28;20036;-68
2023/09/13 06:38:14;;;;;;;46.45;32.30;;;34.20;96.00;;;;;;5052987;28;20021;-67
2023/09/13 06:40:43;;;;;;;47.38;32.63;;;34.30;95.80;;;;;;5052811;28;20025;-66
2023/09/13 06:43:13;;;;;;;39.72;30.73;;;34.20;95.30;;;;;;5052803;28;20033;-69
2023/09/13 06:45:39;;;;;;;45.75;33.30;;;34.10;95.60;;;;;;5056693;28;20029;-66
2023/09/13 06:48:06;;;;;;;55.95;37.50;;;34.00;95.30;;;;;;5071792;28;20016;-67
2023/09/13 06:50:33;;;;;;;50.58;36.33;;;33.90;95.40;;;;;;5071976;28;20025;-67
2023/09/13 06:52:59;;;;;;;57.45;36.30;;;33.90;95.40;;;;;;5072172;28;20037;-66
2023/09/13 06:55:28;;;;;;;52.58;35.83;;;33.80;95.10;;;;;;5074864;28;20021;-65
2023/09/13 06:57:54;;;;;;;49.45;36.15;;;33.80;94.80;;;;;;5074777;28;20028;-64
2023/09/13 07:00:21;;;;;;;51.28;33.83;;;33.80;94.90;;;;;;5075216;28;20024;-65
2023/09/13 07:02:47;;;;;;;45.42;31.25;;;34.00;95.30;;;;;;5069044;28;20522;-64
2023/09/13 07:05:14;;;;;;;47.40;31.25;;;34.00;94.20;;;;;;5071060;28;20036;-69
2023/09/13 07:07:41;;;;;;;59.78;39.72;;;34.10;94.70;;;;;;5075001;28;20021;-67
2023/09/13 07:10:08;;;;;;;57.83;39.88;;;34.30;94.50;;;;;;5075181;28;20056;-70
2023/09/13 07:12:34;;;;;;;51.78;35.13;;;34.40;94.10;;;;;;5071048;28;20021;-69
2023/09/13 07:15:02;;;;;;;47.20;33.20;;;34.50;94.30;;;;;;5075316;28;20429;-65
2023/09/13 07:17:28;;;;;;;72.57;35.83;;;34.60;94.10;;;;;;5070315;28;20526;-65
2023/09/13 07:19:55;;;;;;;51.38;36.42;;;34.60;92.70;;;;;;5074039;28;20104;-65
2023/09/13 07:22:22;;;;;;;56.42;41.03;;;34.70;93.50;;;;;;5071394;28;20024;-64
2023/09/13 07:24:48;;;;;;;51.97;39.08;;;34.80;92.10;;;;;;5070483;28;20016;-64
2023/09/13 07:27:15;;;;;;;59.38;41.38;;;34.80;92.40;;;;;;5075865;28;20028;-72
2023/09/13 07:29:41;;;;;;;60.55;44.22;;;34.70;92.30;;;;;;5075848;28;20016;-70
2023/09/13 07:32:09;;;;;;;64.40;47.70;;;34.80;92.70;;;;;;5075378;28;20100;-72
2023/09/13 07:34:35;;;;;;;71.05;48.83;;;34.90;92.20;;;;;;5075282;28;20032;-68
2023/09/13 07:37:03;;;;;;;71.47;52.28;;;35.00;92.10;;;;;;5075517;28;20021;-66
2023/09/13 07:39:30;;;;;;;57.95;43.45;;;35.00;92.30;;;;;;5070316;28;20052;-66
2023/09/13 07:41:57;;;;;;;62.00;41.80;;;34.90;92.10;;;;;;5075541;28;20378;-67
2023/09/13 07:44:25;;;;;;;52.95;39.28;;;34.80;90.80;;;;;;5075208;28;20032;-67
2023/09/13 07:46:52;;;;;;;39.03;26.08;;;34.70;91.20;;;;;;5075161;28;20047;-67
2023/09/13 07:49:18;;;;;;;54.42;35.40;;;34.60;91.00;;;;;;5075303;28;20056;-67
2023/09/13 07:51:45;;;;;;;74.15;52.97;;;34.60;91.20;;;;;;5073893;28;20437;-68
2023/09/13 07:54:11;;;;;;;81.80;58.85;;;34.50;91.10;;;;;;5075148;28;20024;-66
2023/09/13 07:56:38;;;;;;;70.43;52.17;;;34.50;91.50;;;;;;5075095;28;20016;-64
2023/09/13 07:59:07;;;;;;;80.95;53.67;;;34.70;91.60;;;;;;5075279;28;20024;-66
2023/09/13 08:01:33;;;;;;;75.80;55.15;;;34.70;91.20;;;;;;5069880;28;20027;-67
2023/09/13 08:04:00;;;;;;;65.22;45.85;;;34.60;91.20;;;;;;5074867;28;20028;-65
2023/09/13 08:06:27;;;;;;;36.47;24.25;;;34.50;91.50;;;;;;5073858;28;20085;-67
2023/09/13 08:08:54;;;;;;;34.00;27.30;;;34.50;90.70;;;;;;5069681;28;20048;-64
2023/09/13 08:11:20;;;;;;;57.88;39.72;;;34.50;90.70;;;;;;5074885;28;20028;-65
2023/09/13 08:13:46;;;;;;;54.78;35.33;;;34.50;90.50;;;;;;5074745;28;20023;-64
2023/09/13 08:16:13;;;;;;;50.33;35.05;;;34.50;91.00;;;;;;5069676;28;20378;-64
2023/09/13 08:18:40;;;;;;;42.67;32.42;;;34.50;90.10;;;;;;5074832;28;20024;-64
2023/09/13 08:21:07;;;;;;;48.30;33.30;;;34.50;90.90;;;;;;5074559;28;20462;-66
2023/09/13 08:23:35;;;;;;;44.17;24.45;;;34.50;91.30;;;;;;5074744;28;20482;-63
2023/09/13 08:26:02;;;;;;;32.00;21.05;;;34.50;90.10;;;;;;5074641;28;20069;-63
2023/09/13 08:28:28;;;;;;;39.72;28.40;;;34.50;90.40;;;;;;5074368;28;20036;-63
2023/09/13 08:30:55;;;;;;;52.90;34.03;;;34.40;90.20;;;;;;5074533;28;20020;-64
2023/09/13 08:33:21;;;;;;;54.38;37.88;;;34.50;90.20;;;;;;5074406;28;20020;-62
2023/09/13 08:35:48;;;;;;;47.00;34.00;;;34.50;90.70;;;;;;5074193;28;20478;-63
2023/09/13 08:38:14;;;;;;;52.13;37.47;;;34.60;90.80;;;;;;5074389;28;20024;-62
2023/09/13 08:40:44;;;;;;;51.60;35.08;;;34.60;89.80;;;;;;5074547;28;20066;-62
2023/09/13 08:43:12;;;;;;;51.70;26.88;;;34.50;88.40;;;;;;5074115;28;20073;-62
2023/09/13 08:45:39;;;;;;;25.33;19.15;;;34.40;88.50;;;;;;5074091;28;20091;-64
2023/09/13 08:48:07;;;;;;;28.20;18.77;;;34.40;89.10;;;;;;5068099;28;20048;-62
2023/09/13 08:50:36;;;;;;;32.42;17.85;;;34.40;90.00;;;;;;5070269;28;20031;-63
2023/09/13 08:53:05;;;;;;;35.83;19.20;;;34.40;88.70;;;;;;5073915;28;20039;-63
2023/09/13 08:55:33;;;;;;;37.75;22.80;;;34.40;89.60;;;;;;5068581;28;20039;-62
2023/09/13 08:58:02;;;;;;;45.67;27.50;;;34.40;87.30;;;;;;5074263;28;20017;-64
2023/09/13 09:00:34;;;;;;;40.80;26.67;;;34.30;88.10;;;;;;5074206;28;20086;-65
2023/09/13 09:03:04;;;;;;;35.92;24.65;;;34.30;88.90;;;;;;5073988;28;20036;-65
2023/09/13 09:05:32;;;;;;;44.38;26.95;;;34.30;88.20;;;;;;5073908;28;20025;-65
2023/09/13 09:08:00;;;;;;;56.35;22.67;;;34.30;89.20;;;;;;5074259;28;20024;-64
2023/09/13 09:10:27;;;;;;;28.05;19.08;;;34.30;89.40;;;;;;5073961;28;20020;-64
2023/09/13 09:12:58;;;;;;;22.25;14.15;;;34.30;89.80;;;;;;5072899;28;20028;-63
2023/09/13 09:15:26;;;;;;;28.00;17.67;;;34.30;88.40;;;;;;5065125;28;20032;-64
2023/09/13 09:17:56;;;;;;;29.92;16.90;;;34.20;88.10;;;;;;5067586;28;20047;-64
2023/09/13 09:20:28;;;;;;;24.20;15.52;;;34.20;88.70;;;;;;5063601;28;20425;-64
2023/09/13 09:22:58;;;;;;;26.15;18.05;;;34.20;88.60;;;;;;5059337;28;20032;-61
2023/09/13 09:25:25;;;;;;;28.60;18.38;;;34.10;89.50;;;;;;5066206;28;20039;-61
2023/09/13 09:27:52;;;;;;;27.10;18.60;;;34.10;90.00;;;;;;5072578;28;20028;-62
2023/09/13 09:30:29;;;;;;;40.38;20.88;;;34.10;89.10;;;;;;5066336;28;20120;-62
2023/09/13 09:33:06;;;;;;;31.38;20.30;;;34.10;89.80;;;;;;5059875;28;20112;-63
2023/09/13 09:35:34;;;;;;;25.48;17.17;;;34.10;89.70;;;;;;5037322;28;20051;-62
2023/09/13 09:38:01;;;;;;;26.30;17.33;;;34.10;90.00;;;;;;5056944;28;20344;-65
2023/09/13 09:40:27;;;;;;;27.83;16.63;;;34.00;90.70;;;;;;5070961;28;20185;-66
2023/09/13 09:42:56;;;;;;;24.65;14.82;;;34.00;91.20;;;;;;5062755;28;20606;-66
2023/09/13 09:45:23;;;;;;;23.10;15.30;;;34.00;90.70;;;;;;5064282;28;20036;-71
2023/09/13 09:47:51;;;;;;;25.52;16.23;;;33.90;90.90;;;;;;5069100;28;20051;-67
2023/09/13 09:50:18;;;;;;;25.42;16.15;;;33.80;90.80;;;;;;5069124;28;20028;-66
2023/09/13 09:52:51;;;;;;;34.17;21.25;;;33.70;90.70;;;;;;5068629;28;20119;-67
2023/09/13 09:55:21;;;;;;;35.97;20.40;;;33.70;90.70;;;;;;5073361;28;20029;-67
2023/09/13 09:57:49;;;;;;;30.83;17.30;;;33.70;90.90;;;;;;5069102;28;20498;-68
2023/09/13 10:00:16;;;;;;;25.77;15.52;;;33.60;91.30;;;;;;5067591;28;20037;-65
2023/09/13 10:02:47;;;;;;;23.30;16.10;;;33.50;91.20;;;;;;5071267;28;20043;-68
2023/09/13 10:05:16;;;;;;;29.35;15.32;;;33.50;91.30;;;;;;5073210;28;20016;-66
2023/09/13 10:07:56;;;;;;;26.67;15.93;;;33.50;91.40;;;;;;5073395;28;20028;-65
2023/09/13 10:10:37;;;;;;;31.35;14.50;;;33.40;91.50;;;;;;5073157;28;20017;-66
2023/09/13 10:13:05;;;;;;;23.83;12.70;;;33.40;91.90;;;;;;5073159;28;20371;-66
2023/09/13 10:15:32;;;;;;;27.88;14.38;;;33.40;92.10;;;;;;5073327;28;20064;-65
2023/09/13 10:18:01;;;;;;;28.75;14.43;;;33.30;92.00;;;;;;5073377;28;20077;-67
2023/09/13 10:20:30;;;;;;;27.98;15.00;;;33.20;92.70;;;;;;5073382;28;20077;-67
2023/09/13 10:22:59;;;;;;;20.08;15.23;;;33.20;92.50;;;;;;5073442;28;20099;-65
2023/09/13 10:25:29;;;;;;;31.85;14.75;;;33.20;92.60;;;;;;5073626;28;20036;-66
2023/09/13 10:27:59;;;;;;;22.20;13.95;;;33.20;91.90;;;;;;5073457;28;20021;-66
2023/09/13 10:30:29;;;;;;;25.25;15.05;;;33.10;92.10;;;;;;5075717;28;20028;-67
2023/09/13 10:33:03;;;;;;;30.35;15.90;;;33.10;91.90;;;;;;5077219;28;20167;-65
2023/09/13 10:35:32;;;;;;;30.80;16.25;;;33.00;92.30;;;;;;5077125;28;20386;-68
2023/09/13 10:38:24;;;;;;;28.85;16.27;;;33.00;91.70;;;;;;5076953;28;20021;-68
2023/09/13 10:41:03;;;;;;;30.55;15.57;;;32.90;92.00;;;;;;5076897;28;20555;-67
2023/09/13 10:43:30;;;;;;;24.90;16.42;;;32.80;92.60;;;;;;5077065;28;20505;-68
2023/09/13 10:45:57;;;;;;;27.67;17.27;;;32.80;92.40;;;;;;5076847;28;20609;-67
2023/09/13 10:48:25;;;;;;;28.30;15.18;;;32.80;92.40;;;;;;5076718;28;20025;-66
2023/09/13 10:50:54;;;;;;;26.30;14.80;;;32.80;92.40;;;;;;5075163;28;20034;-68
2023/09/13 10:53:23;;;;;;;24.98;15.70;;;32.70;92.50;;;;;;5047508;28;20053;-69
2023/09/13 10:55:50;;;;;;;25.23;16.42;;;32.70;92.60;;;;;;5036770;28;20014;-68
2023/09/13 10:58:21;;;;;;;27.45;16.90;;;32.70;92.90;;;;;;5036785;28;20073;-69
2023/09/13 11:00:54;;;;;;;25.60;16.88;;;32.60;92.80;;;;;;5036646;28;20029;-69
2023/09/13 11:03:22;;;;;;;31.20;17.50;;;32.60;92.90;;;;;;5036492;28;20539;-70
2023/09/13 11:05:53;;;;;;;26.55;18.30;;;32.50;93.20;;;;;;5036577;28;20399;-68
2023/09/13 11:08:31;;;;;;;30.90;20.63;;;32.60;93.30;;;;;;5036399;28;20028;-68
2023/09/13 11:11:18;;;;;;;39.55;20.30;;;32.60;93.50;;;;;;5036503;28;20026;-69
2023/09/13 11:13:55;;;;;;;35.20;20.27;;;32.50;93.50;;;;;;5036157;28;20040;-69
2023/09/13 11:16:23;;;;;;;34.47;19.75;;;32.40;93.90;;;;;;5036500;28;20032;-69
2023/09/13 11:18:52;;;;;;;35.00;19.25;;;32.40;94.00;;;;;;5036381;28;20484;-68
2023/09/13 11:21:44;;;;;;;30.88;18.83;;;32.40;94.40;;;;;;5036127;28;20468;-69
2023/09/13 11:24:13;;;;;;;28.52;18.25;;;32.20;94.10;;;;;;5036189;28;20480;-70
2023/09/13 11:26:48;;;;;;;30.85;18.13;;;32.20;94.30;;;;;;5036028;28;20104;-70
2023/09/13 11:29:25;;;;;;;36.92;19.75;;;32.20;94.80;;;;;;5071681;28;20024;-69
2023/09/13 11:31:59;;;;;;;26.00;16.70;;;32.10;94.50;;;;;;5070660;28;20016;-69
2023/09/13 11:34:26;;;;;;;24.40;15.20;;;32.00;94.80;;;;;;5074765;28;20021;-68
2023/09/13 11:37:05;;;;;;;25.17;15.90;;;32.00;94.70;;;;;;5074639;28;20019;-68
2023/09/13 11:39:32;;;;;;;29.98;17.90;;;32.00;95.00;;;;;;5071375;28;20025;-69
2023/09/13 11:41:59;;;;;;;33.53;19.50;;;31.90;95.10;;;;;;5075001;28;20395;-67
2023/09/13 11:44:26;;;;;;;24.98;16.83;;;31.90;95.50;;;;;;5075331;28;20024;-68
2023/09/13 11:46:54;;;;;;;44.08;25.50;;;31.90;95.50;;;;;;5070315;28;20021;-67
2023/09/13 11:49:23;;;;;;;38.72;22.20;;;31.90;95.60;;;;;;5075095;28;20020;-67
2023/09/13 11:51:55;;;;;;;27.05;17.63;;;31.90;96.00;;;;;;5074041;28;20086;-68
2023/09/13 11:54:22;;;;;;;;;;;31.80;95.70;;;;;;5075532;28;20032;-67
2023/09/13 11:57:06;;;;;;;30.63;18.33;;;31.80;95.90;;;;;;5075197;28;19995;-66
2023/09/13 11:59:32;;;;;;;33.55;19.08;;;31.70;96.60;;;;;;5069708;28;20024;-68
2023/09/13 12:01:59;;;;;;;30.27;18.23;;;31.70;96.60;;;;;;5075236;28;20047;-68
2023/09/13 12:04:26;;;;;;;36.10;18.73;;;31.70;96.70;;;;;;5068400;28;20503;-69
2023/09/13 12:06:54;;;;;;;28.05;17.58;;;31.60;96.80;;;;;;5073878;28;20463;-68
2023/09/13 12:09:24;;;;;;;27.98;17.00;;;31.60;97.30;;;;;;5074749;28;20429;-65
2023/09/13 12:11:54;;;;;;;27.80;16.65;;;31.60;97.40;;;;;;5070151;28;20469;-65
2023/09/13 12:14:26;;;;;;;46.35;25.95;;;31.60;97.40;;;;;;5074721;28;20021;-64
2023/09/13 12:16:52;;;;;;;;;;;31.50;97.30;;;;;;5070809;28;20099;-70
2023/09/13 12:19:19;;;;;;;37.72;18.63;;;31.40;97.70;;;;;;5074794;28;19962;-71
2023/09/13 12:21:47;;;;;;;26.02;16.23;;;31.40;97.90;;;;;;5075082;28;20467;-72
2023/09/13 12:24:20;;;;;;;35.10;18.70;;;31.40;97.80;;;;;;5074452;28;20049;-71
2023/09/13 12:26:50;;;;;;;28.65;17.98;;;31.30;98.30;;;;;;5074462;28;20413;-71
2023/09/13 12:29:17;;;;;;;30.63;18.40;;;31.20;98.20;;;;;;5074419;28;20020;-69
2023/09/13 12:31:44;;;;;;;31.00;17.70;;;31.20;98.30;;;;;;5074135;28;20036;-71
2023/09/13 12:34:11;;;;;;;28.33;17.50;;;31.20;98.60;;;;;;5074008;28;20360;-65